Terminal Aerodrome Forecast
Issued by NWS

Home | Current Version | Previous Version | Text Only | Print | Product List | Glossary On
Versions: 1 2 3 4 5 6 7 8 9 10 11 12 13 14 15 16 17 18 19 20 21 22 23 24 25 26 27 28
615
FTUS45 KGJT 252334
TAFEGE
TAF
KEGE 252334Z 2600/2624 29008KT P6SM SKC
     FM260300 VRB04KT P6SM FEW250
     FM262000 27007KT P6SM FEW250
      AMD LTD TO CLD VIS AND WIND 2601/2613=

USA.gov is the U.S. government's official web portal to all federal, state and local government web resources and services.